Time;durP1;ratioP1;P1;durP2;ratioP2;P2;SDS_P1;SDS_P2;PMS_P1;PMS_P2;Temp;Humidity;BMP_temperature;BMP_pressure;BME280_temperature;BME280_humidity;BME280_pressure;Samples;Min_cycle;Max_cycle;Signal;HPM_P1;HPM_P2
2022/06/02 00:00:12;;;;;;;8.63;4.65;;;;;;;16.68;67.08;99794.50;5095922;28;20397;-68
2022/06/02 00:02:57;;;;;;;9.32;4.10;;;;;;;16.68;67.16;99794.50;5096565;28;20052;-69
2022/06/02 00:05:50;;;;;;;9.10;3.70;;;;;;;16.64;66.95;99793.63;5095983;28;20105;-68
2022/06/02 00:08:19;;;;;;;8.20;3.40;;;;;;;16.61;67.26;99795.16;5095906;28;20040;-69
2022/06/02 00:11:01;;;;;;;5.30;3.03;;;;;;;16.64;67.21;99800.03;5095603;28;20422;-69
2022/06/02 00:13:41;;;;;;;8.93;4.25;;;;;;;16.65;67.14;99790.47;5111344;28;20130;-68
2022/06/02 00:16:25;;;;;;;7.85;3.30;;;;;;;16.62;67.07;99794.00;5116178;28;20138;-69
2022/06/02 00:18:57;;;;;;;6.43;2.88;;;;;;;16.64;67.29;99804.88;5116079;28;20066;-69
2022/06/02 00:21:42;;;;;;;10.02;3.53;;;;;;;16.70;66.85;99803.41;5115939;28;20054;-69
2022/06/02 00:24:32;;;;;;;8.48;3.67;;;;;;;16.75;67.03;99808.75;5098318;28;20417;-68
2022/06/02 00:27:21;;;;;;;7.45;3.47;;;;;;;16.70;67.20;99806.22;5095240;28;20052;-68
2022/06/02 00:29:57;;;;;;;5.60;3.47;;;;;;;16.75;67.09;99805.94;5095429;28;20403;-69
2022/06/02 00:32:39;;;;;;;5.80;3.38;;;;;;;16.81;66.93;99804.47;5095754;28;20048;-69
2022/06/02 00:35:18;;;;;;;7.68;3.03;;;;;;;16.79;67.12;99798.38;5095397;28;20507;-68
2022/06/02 00:37:55;;;;;;;8.98;3.42;;;;;;;16.77;67.18;99797.94;5095707;28;20562;-69
2022/06/02 00:40:24;;;;;;;9.75;3.60;;;;;;;16.67;67.41;99798.50;5095120;28;20068;-68
2022/06/02 00:43:22;;;;;;;11.73;3.85;;;;;;;16.61;67.60;99795.16;5095508;28;20066;-73
2022/06/02 00:46:13;;;;;;;7.15;3.20;;;;;;;16.58;67.84;99783.88;5095164;28;20040;-68
2022/06/02 00:49:19;;;;;;;6.70;3.85;;;;;;;16.54;67.74;99777.31;5095020;28;20048;-68
2022/06/02 00:51:55;;;;;;;7.28;3.60;;;;;;;16.49;67.97;99769.22;5094815;28;20071;-69
2022/06/02 00:57:50;;;;;;;8.77;3.92;;;;;;;16.43;68.13;99777.91;5095277;28;20052;-72
2022/06/02 01:00:37;;;;;;;8.75;3.47;;;;;;;16.43;68.05;99780.72;5061414;28;20410;-68
2022/06/02 01:03:14;;;;;;;15.23;4.00;;;;;;;16.46;67.73;99789.59;5112379;28;20146;-69
2022/06/02 01:06:02;;;;;;;9.40;3.63;;;;;;;16.44;67.77;99790.75;5114842;28;20044;-69
2022/06/02 01:08:35;;;;;;;9.85;3.55;;;;;;;16.40;68.09;99789.84;5115498;28;20542;-70
2022/06/02 01:11:24;;;;;;;14.98;4.07;;;;;;;16.40;68.01;99792.66;5096454;28;20052;-72
2022/06/02 01:14:13;;;;;;;10.10;3.83;;;;;;;16.40;67.87;99795.44;5094720;28;20392;-69
2022/06/02 01:16:57;;;;;;;7.60;3.67;;;;;;;16.41;68.15;99797.06;5094270;28;20173;-70
2022/06/02 01:19:56;;;;;;;9.80;4.00;;;;;;;16.43;67.92;99789.13;5094460;28;20043;-69
2022/06/02 01:23:01;;;;;;;9.23;4.10;;;;;;;16.42;67.86;99783.84;5097103;28;20056;-75
2022/06/02 01:25:46;;;;;;;9.02;3.55;;;;;;;16.42;67.64;99783.84;5095958;28;20139;-69
2022/06/02 01:28:37;;;;;;;5.97;3.85;;;;;;;16.44;67.79;99785.13;5114867;28;20071;-70
2022/06/02 01:31:30;;;;;;;8.18;3.70;;;;;;;16.45;67.77;99771.94;5114533;28;20510;-70
2022/06/02 01:34:15;;;;;;;6.68;3.70;;;;;;;16.49;67.74;99778.44;5114924;28;20433;-68
2022/06/02 01:36:59;;;;;;;12.13;4.55;;;;;;;16.52;67.54;99776.91;5114823;28;20432;-73
2022/06/02 01:39:38;;;;;;;5.70;3.80;;;;;;;16.56;67.54;99774.97;5114630;28;20053;-68
2022/06/02 01:42:33;;;;;;;10.70;4.43;;;;;;;16.58;67.60;99789.47;5114676;28;20044;-68
2022/06/02 01:45:09;;;;;;;6.68;3.88;;;;;;;16.63;67.25;99790.00;5114593;28;20060;-73
2022/06/02 01:47:44;;;;;;;8.95;5.13;;;;;;;16.70;67.21;99786.53;5114198;28;20052;-70
2022/06/02 01:50:13;;;;;;;12.40;5.15;;;;;;;16.79;66.92;99784.34;5114359;28;20094;-70
2022/06/02 01:52:59;;;;;;;7.70;3.97;;;;;;;16.85;66.61;99777.25;5094059;28;20043;-68
2022/06/02 01:55:53;;;;;;;9.90;4.38;;;;;;;16.91;66.41;99775.78;5093807;28;20139;-69
2022/06/02 01:58:34;;;;;;;10.35;4.63;;;;;;;16.92;66.35;99777.38;5093890;28;20052;-69
2022/06/02 02:01:41;;;;;;;9.20;4.57;;;;;;;16.96;66.36;99786.72;5097458;28;20046;-69
2022/06/02 02:04:30;;;;;;;14.73;5.45;;;;;;;17.02;65.99;99774.00;5112588;28;20460;-72
2022/06/02 02:07:15;;;;;;;11.88;4.82;;;;;;;17.04;66.03;99780.06;5113668;28;20050;-73
2022/06/02 02:09:50;;;;;;;12.25;5.55;;;;;;;16.97;66.18;99783.56;5113696;28;20055;-69
2022/06/02 02:12:34;;;;;;;16.58;5.50;;;;;;;16.96;66.47;99779.09;5093795;28;20048;-68
2022/06/02 02:15:30;;;;;;;11.38;4.97;;;;;;;16.89;66.51;99766.88;5093464;28;20048;-69
2022/06/02 02:18:17;;;;;;;11.82;5.75;;;;;;;16.83;66.76;99774.81;5093525;28;20522;-70
2022/06/02 02:21:14;;;;;;;9.93;5.35;;;;;;;16.79;66.55;99775.91;5093178;28;20058;-69
2022/06/02 02:24:02;;;;;;;10.80;5.03;;;;;;;16.81;66.64;99776.38;5093136;28;20058;-69
2022/06/02 02:26:39;;;;;;;11.95;5.70;;;;;;;16.83;66.66;99763.56;5093033;28;20058;-68
2022/06/02 02:29:38;;;;;;;18.23;5.63;;;;;;;16.87;66.55;99770.06;5093015;28;20048;-72
2022/06/02 02:32:20;;;;;;;13.35;5.50;;;;;;;16.89;66.34;99773.31;5093124;28;20469;-69
2022/06/02 02:35:06;;;;;;;17.23;5.78;;;;;;;16.98;66.24;99765.50;5093438;28;20044;-70
2022/06/02 02:37:58;;;;;;;11.77;5.43;;;;;;;17.00;66.03;99763.13;5093245;28;20048;-69
2022/06/02 02:40:39;;;;;;;9.10;4.63;;;;;;;16.89;66.32;99761.25;5092730;28;20040;-69
2022/06/02 02:43:09;;;;;;;9.85;4.72;;;;;;;16.78;66.32;99763.06;5093084;28;20056;-69
2022/06/02 02:45:46;;;;;;;8.82;4.85;;;;;;;16.76;66.61;99762.59;5093337;28;20455;-74
2022/06/02 02:48:29;;;;;;;9.60;4.90;;;;;;;16.73;66.66;99763.34;5092768;28;20052;-73
2022/06/02 02:51:11;;;;;;;11.25;5.30;;;;;;;16.69;66.84;99754.03;5093048;28;20058;-69
2022/06/02 02:54:01;;;;;;;13.75;5.45;;;;;;;16.64;66.76;99743.06;5092600;28;20044;-68
2022/06/02 02:56:46;;;;;;;12.15;5.30;;;;;;;16.66;66.91;99740.69;5092867;28;20048;-69
2022/06/02 02:59:17;;;;;;;8.25;4.57;;;;;;;16.68;67.03;99743.94;5093073;28;20048;-70
2022/06/02 03:02:11;;;;;;;8.88;4.55;;;;;;;16.72;66.58;99733.63;5092639;28;20052;-70
2022/06/02 03:04:45;;;;;;;11.77;5.05;;;;;;;16.75;66.39;99727.25;5084832;28;20078;-68
2022/06/02 03:07:12;;;;;;;8.18;3.88;;;;;;;16.71;66.57;99726.34;5092522;28;20056;-68
2022/06/02 03:09:48;;;;;;;12.13;4.50;;;;;;;16.75;66.38;99727.25;5092725;28;20461;-73
2022/06/02 03:12:28;;;;;;;7.28;4.00;;;;;;;16.82;66.35;99733.84;5112550;28;20060;-69
2022/06/02 03:15:34;;;;;;;7.15;3.65;;;;;;;16.86;65.88;99734.72;5113037;28;20554;-74
2022/06/02 03:18:33;;;;;;;5.25;3.67;;;;;;;16.93;65.92;99734.06;5110042;28;20161;-68
2022/06/02 03:21:11;;;;;;;8.68;3.63;;;;;;;16.99;65.58;99730.56;5115884;28;20101;-69
2022/06/02 03:24:06;;;;;;;16.73;4.07;;;;;;;17.01;65.04;99730.19;5085860;28;20055;-68
2022/06/02 03:27:04;;;;;;;7.38;4.00;;;;;;;17.03;65.18;99739.09;5096681;28;20068;-73
2022/06/02 03:30:03;;;;;;;9.20;3.83;;;;;;;17.10;64.66;99737.22;5097003;28;20138;-75
2022/06/02 03:32:49;;;;;;;20.17;3.95;;;;;;;17.20;64.39;99741.44;5073071;28;20511;-70
2022/06/02 03:35:24;;;;;;;8.82;3.60;;;;;;;17.31;64.16;99740.47;5096435;28;20055;-73
2022/06/02 03:38:03;;;;;;;6.00;3.42;;;;;;;17.51;63.51;99749.69;5096580;28;20044;-70
2022/06/02 03:40:55;;;;;;;7.07;3.60;;;;;;;17.74;63.17;99745.69;5096412;28;20115;-72
2022/06/02 03:44:00;;;;;;;7.88;2.72;;;;;;;17.97;62.41;99746.50;5096582;28;20520;-68
2022/06/02 03:46:29;;;;;;;16.13;2.72;;;;;;;18.11;62.23;99751.56;5080527;28;20159;-69
2022/06/02 03:49:08;;;;;;;4.30;2.58;;;;;;;18.24;61.51;99759.41;5096101;28;20396;-69
2022/06/02 03:52:06;;;;;;;4.77;2.60;;;;;;;18.14;61.30;99757.25;5096255;28;20491;-70
2022/06/02 03:54:51;;;;;;;9.50;2.60;;;;;;;18.01;61.73;99753.03;5096106;28;20406;-68
2022/06/02 03:57:35;;;;;;;12.75;3.67;;;;;;;18.05;61.39;99756.72;5096940;28;20491;-69
2022/06/02 04:00:14;;;;;;;5.05;2.35;;;;;;;18.11;61.12;99757.19;5095847;28;20145;-69
2022/06/02 04:02:46;;;;;;;6.88;2.30;;;;;;;18.23;60.83;99765.44;5110789;28;20529;-68
2022/06/02 04:05:36;;;;;;;11.95;2.65;;;;;;;18.33;60.80;99762.00;5116280;28;20044;-69
2022/06/02 04:08:35;;;;;;;11.30;3.22;;;;;;;18.35;60.41;99761.59;5116413;28;20047;-69
2022/06/02 04:14:58;;;;;;;6.20;3.50;;;;;;;18.53;60.10;99763.50;5095566;28;20048;-69
2022/06/02 04:17:52;;;;;;;5.03;2.78;;;;;;;18.66;59.83;99770.56;5095165;28;20040;-67
2022/06/02 04:20:37;;;;;;;7.97;2.63;;;;;;;18.88;59.54;99764.00;5069646;28;20056;-70
2022/06/02 04:23:18;;;;;;;6.07;3.38;;;;;;;19.02;59.13;99761.38;5104180;28;20542;-73
2022/06/02 04:26:14;;;;;;;13.82;7.07;;;;;;;19.20;58.43;99758.78;5115940;28;20089;-68
2022/06/02 04:29:02;;;;;;;5.18;2.90;;;;;;;19.32;57.90;99752.91;5097482;28;20134;-69
2022/06/02 04:31:38;;;;;;;10.10;2.95;;;;;;;19.33;57.74;99752.53;5115507;28;20047;-69
2022/06/02 04:34:25;;;;;;;7.18;2.67;;;;;;;19.38;57.73;99752.19;5116141;28;20048;-70
2022/06/02 04:36:58;;;;;;;11.38;3.55;;;;;;;19.59;57.43;99749.59;5115847;28;20101;-74
2022/06/02 04:39:39;;;;;;;6.18;3.47;;;;;;;19.90;57.07;99753.94;5115940;28;20047;-69
2022/06/02 04:42:27;;;;;;;5.78;2.88;;;;;;;20.13;56.25;99759.41;5115297;28;20044;-70
2022/06/02 04:45:11;;;;;;;12.95;3.05;;;;;;;20.17;56.27;99763.06;5115864;28;20039;-70
2022/06/02 04:48:16;;;;;;;7.30;3.03;;;;;;;20.19;56.17;99764.28;5115799;28;20478;-70
2022/06/02 04:51:11;;;;;;;8.25;3.00;;;;;;;20.27;55.90;99765.13;5115305;28;20039;-70
2022/06/02 04:53:59;;;;;;;11.13;4.30;;;;;;;20.40;55.75;99767.25;5115357;28;20534;-71
2022/06/02 04:56:51;;;;;;;10.32;3.55;;;;;;;20.94;54.56;99760.75;5097212;28;20055;-70
2022/06/02 04:59:26;;;;;;;8.77;3.55;;;;;;;21.06;54.07;99760.44;5115266;28;20479;-71
2022/06/02 05:02:35;;;;;;;10.80;3.40;;;;;;;21.09;54.31;99759.63;5115280;28;20046;-71
2022/06/02 05:05:14;;;;;;;10.43;3.20;;;;;;;21.28;53.68;99745.16;5115141;28;20048;-70
2022/06/02 05:08:06;;;;;;;6.07;3.50;;;;;;;21.40;53.29;99741.94;5097131;28;20046;-69
2022/06/02 05:11:14;;;;;;;12.40;3.65;;;;;;;21.56;52.80;99746.03;5114556;28;20086;-69
2022/06/02 05:13:52;;;;;;;7.18;3.17;;;;;;;21.71;52.25;99744.06;5115061;28;20142;-70
2022/06/02 05:16:28;;;;;;;8.90;3.17;;;;;;;21.76;52.36;99735.19;5114924;28;20506;-70
2022/06/02 05:19:10;;;;;;;12.10;2.83;;;;;;;21.86;52.30;99742.06;5115074;28;20070;-70
2022/06/02 05:22:08;;;;;;;6.00;3.05;;;;;;;22.12;51.51;99733.19;5114785;28;20134;-70
2022/06/02 05:25:31;;;;;;;7.45;2.85;;;;;;;22.30;51.03;99739.66;5094431;28;20172;-70
2022/06/02 05:28:27;;;;;;;9.15;4.18;;;;;;;22.49;50.73;99742.88;5052031;28;20132;-70
2022/06/02 05:31:23;;;;;;;5.13;3.03;;;;;;;22.74;50.50;99735.13;5022311;28;20060;-69
2022/06/02 05:33:52;;;;;;;6.45;3.30;;;;;;;22.85;50.29;99744.44;5029512;28;20404;-70
2022/06/02 05:36:27;;;;;;;6.10;3.78;;;;;;;23.08;49.66;99736.25;5051755;28;20049;-72
2022/06/02 05:39:08;;;;;;;8.60;3.50;;;;;;;23.38;48.73;99732.09;5051637;28;20052;-74
2022/06/02 05:41:53;;;;;;;6.53;3.70;;;;;;;23.57;48.46;99740.91;5050477;28;20048;-73
2022/06/02 05:44:49;;;;;;;11.52;4.20;;;;;;;23.61;47.86;99729.50;5051472;28;20536;-74
2022/06/02 05:47:31;;;;;;;9.45;3.50;;;;;;;23.84;47.96;99729.75;5051721;28;20408;-74
2022/06/02 05:50:18;;;;;;;9.73;3.08;;;;;;;24.19;47.58;99732.38;5051619;28;20403;-74
2022/06/02 05:53:03;;;;;;;10.60;3.30;;;;;;;24.49;46.86;99736.16;5051511;28;20052;-73
2022/06/02 05:55:52;;;;;;;12.32;4.03;;;;;;;24.47;46.88;99726.41;5051250;28;20072;-74
2022/06/02 05:58:37;;;;;;;9.90;4.15;;;;;;;24.55;47.15;99727.94;5069852;28;20142;-74
2022/06/02 06:01:27;;;;;;;10.57;4.90;;;;;;;24.99;46.27;99716.53;5093471;28;20136;-73
2022/06/02 06:03:58;;;;;;;5.75;4.15;;;;;;;25.54;44.50;99719.03;5094083;28;20044;-74
2022/06/02 06:06:41;;;;;;;11.73;4.88;;;;;;;26.19;42.95;99719.28;5107209;28;20130;-74
2022/06/02 06:09:15;;;;;;;6.03;3.80;;;;;;;28.48;39.04;99714.38;5114013;28;20399;-74
2022/06/02 06:12:00;;;;;;;55.40;30.35;;;;;;;32.27;32.22;99713.69;5113577;28;20506;-75
2022/06/02 06:15:02;;;;;;;8.70;4.25;;;;;;;35.34;27.50;99718.59;5114261;28;20379;-71
2022/06/02 06:17:39;;;;;;;8.20;4.50;;;;;;;33.71;28.84;99723.72;5113766;28;20051;-70
2022/06/02 06:20:07;;;;;;;9.32;3.45;;;;;;;31.21;32.56;99722.03;5113393;28;20533;-70
2022/06/02 06:22:52;;;;;;;7.40;3.80;;;;;;;29.47;34.67;99722.59;5109297;28;20050;-69
2022/06/02 06:25:25;;;;;;;7.45;4.28;;;;;;;29.48;34.65;99715.59;5092972;28;20147;-71
2022/06/02 06:27:55;;;;;;;10.13;4.57;;;;;;;28.32;36.85;99712.31;5075720;28;20044;-70
2022/06/02 06:30:37;;;;;;;9.38;4.38;;;;;;;27.38;38.68;99726.81;5093807;28;20052;-68
2022/06/02 06:33:13;;;;;;;11.18;5.95;;;;;;;26.43;40.55;99711.50;5093232;28;20044;-69
2022/06/02 06:36:05;;;;;;;8.65;4.53;;;;;;;25.91;41.46;99714.03;5092860;28;20048;-67
2022/06/02 06:39:05;;;;;;;22.02;4.60;;;;;;;26.55;40.52;99722.28;5092795;28;20044;-67
2022/06/02 06:41:37;;;;;;;10.27;4.75;;;;;;;28.10;37.81;99717.75;5062158;28;20048;-69
2022/06/02 06:44:09;;;;;;;9.75;4.50;;;;;;;28.21;37.50;99706.84;5093362;28;20127;-68
2022/06/02 06:46:48;;;;;;;10.57;4.35;;;;;;;27.84;37.86;99703.69;5092947;28;20558;-68
2022/06/02 06:49:23;;;;;;;9.07;4.70;;;;;;;27.88;38.17;99698.69;5092875;28;20043;-67
2022/06/02 06:52:22;;;;;;;7.30;3.97;;;;;;;31.79;32.65;99705.78;5092737;28;20105;-69
2022/06/02 06:55:30;;;;;;;11.80;4.57;;;;;;;37.74;24.55;99702.91;5081995;28;20040;-69
2022/06/02 06:58:28;;;;;;;22.52;9.88;;;;;;;41.47;20.34;99704.13;5112809;28;20059;-71
2022/06/02 07:01:21;;;;;;;7.18;3.83;;;;;;;44.15;17.72;99710.91;5112807;28;20528;-69
2022/06/02 07:04:05;;;;;;;6.60;3.70;;;;;;;46.33;16.11;99708.03;5102374;28;20154;-69
2022/06/02 07:06:38;;;;;;;10.68;3.80;;;;;;;47.41;15.19;99712.69;5112832;28;20043;-69
2022/06/02 07:09:52;;;;;;;6.22;3.47;;;;;;;48.06;14.15;99726.69;5113068;28;20066;-69
2022/06/02 07:15:30;;;;;;;13.30;3.17;;;;;;;47.03;14.28;99717.63;5072632;28;20063;-73
2022/06/02 07:17:57;;;;;;;11.77;3.00;;;;;;;48.60;13.10;99726.13;5072114;28;20060;-74
2022/06/02 07:20:57;;;;;;;7.30;3.72;;;;;;;49.08;11.95;99721.19;5072495;28;20045;-73
2022/06/02 07:23:54;;;;;;;5.32;3.10;;;;;;;49.92;11.67;99734.22;5083468;28;20391;-73
2022/06/02 07:26:27;;;;;;;;;;;;;;;50.69;12.01;99731.72;5092866;28;20417;-69
2022/06/02 07:40:47;;;;;;;10.27;3.90;;;;;;;49.05;10.98;99728.28;5090630;27;20886;-73
2022/06/02 07:43:39;;;;;;;7.50;3.45;;;;;;;47.59;12.27;99730.09;5088801;28;20044;-73
2022/06/02 07:46:20;;;;;;;6.93;3.50;;;;;;;47.24;12.61;99727.94;5089904;28;20075;-76
2022/06/02 07:48:59;;;;;;;39.95;16.13;;;;;;;49.83;11.13;99726.00;5086886;28;20040;-75
2022/06/02 07:51:57;;;;;;;5.63;3.13;;;;;;;51.85;9.62;99728.41;5069712;28;20048;-76
2022/06/02 07:54:44;;;;;;;9.35;3.70;;;;;;;52.91;9.45;99725.25;5067472;28;20048;-76
2022/06/02 07:57:33;;;;;;;12.27;3.63;;;;;;;53.31;9.21;99736.59;5069480;28;20049;-72
2022/06/02 08:00:21;;;;;;;12.10;3.40;;;;;;;52.89;8.70;99721.34;5069499;28;20156;-76
2022/06/02 08:03:18;;;;;;;8.65;3.42;;;;;;;53.09;8.87;99722.97;5069601;28;20098;-73
2022/06/02 08:06:27;;;;;;;4.03;2.92;;;;;;;53.72;8.22;99721.22;5069328;28;20049;-76
2022/06/02 08:09:11;;;;;;;6.68;3.25;;;;;;;54.34;7.97;99725.16;5068890;28;20059;-74
2022/06/02 08:11:56;;;;;;;5.05;3.03;;;;;;;54.40;8.19;99719.63;5069525;28;20048;-73
2022/06/02 08:14:31;;;;;;;8.02;3.28;;;;;;;53.54;7.96;99725.00;5069177;28;20143;-73
2022/06/02 08:17:16;;;;;;;5.10;3.10;;;;;;;52.01;9.60;99726.78;5069269;28;20072;-73
2022/06/02 08:20:04;;;;;;;6.05;2.55;;;;;;;51.53;9.44;99726.44;5069051;28;20045;-76
2022/06/02 08:22:54;;;;;;;8.45;3.05;;;;;;;50.69;9.98;99725.78;5069044;28;20049;-76
2022/06/02 08:25:26;;;;;;;10.57;2.90;;;;;;;52.54;9.06;99717.81;5068792;28;20072;-73
2022/06/02 08:28:20;;;;;;;3.97;2.78;;;;;;;53.71;8.10;99721.84;5068896;28;20064;-76
2022/06/02 08:31:28;;;;;;;5.50;2.58;;;;;;;53.56;8.28;99722.16;5069028;28;20542;-72
2022/06/02 08:34:36;;;;;;;5.28;2.20;;;;;;;54.41;8.22;99718.19;5068864;28;20052;-78
2022/06/02 08:37:08;;;;;;;7.68;3.38;;;;;;;54.74;8.05;99728.06;5068638;28;20536;-75
2022/06/02 08:39:50;;;;;;;4.18;2.95;;;;;;;55.33;7.40;99724.03;5066142;28;20099;-76
2022/06/02 08:42:55;;;;;;;6.60;2.67;;;;;;;56.40;7.11;99714.13;5055410;28;20056;-74
2022/06/02 08:45:51;;;;;;;9.75;3.25;;;;;;;56.52;7.12;99717.91;5055287;28;20465;-72
2022/06/02 08:48:39;;;;;;;7.55;2.60;;;;;;;56.79;6.42;99712.16;5055535;28;20057;-73
2022/06/02 08:51:18;;;;;;;5.47;2.50;;;;;;;56.93;6.99;99719.03;5055338;28;20131;-74
2022/06/02 08:53:57;;;;;;;4.68;2.67;;;;;;;57.84;5.95;99732.16;5055201;28;20053;-72
2022/06/02 08:56:46;;;;;;;4.25;2.72;;;;;;;57.77;6.12;99721.22;5055609;28;20045;-73
2022/06/02 08:59:12;;;;;;;4.85;2.85;;;;;;;57.40;6.58;99711.50;5054930;28;20131;-75
2022/06/02 09:01:58;;;;;;;5.90;3.10;;;;;;;57.31;6.46;99714.66;5063897;28;20049;-72
2022/06/02 09:04:47;;;;;;;7.10;2.60;;;;;;;57.67;6.00;99708.63;5095109;28;20056;-76
2022/06/02 09:07:32;;;;;;;6.05;3.10;;;;;;;57.63;5.96;99699.41;5094817;28;20051;-78
2022/06/02 09:10:29;;;;;;;6.78;2.80;;;;;;;56.35;6.97;99700.34;5099462;28;20036;-78
2022/06/02 09:13:18;;;;;;;4.90;2.60;;;;;;;53.46;8.53;99695.41;5115541;28;20472;-73
2022/06/02 09:15:54;;;;;;;4.68;2.28;;;;;;;48.47;11.88;99690.91;5115178;28;20047;-77
2022/06/02 09:18:43;;;;;;;6.60;1.90;;;;;;;49.03;11.04;99687.50;5115258;28;20051;-73
2022/06/02 09:21:59;;;;;;;5.43;2.10;;;;;;;48.50;11.86;99677.91;5101401;28;20056;-77
2022/06/02 09:24:27;;;;;;;7.32;2.85;;;;;;;46.12;13.61;99671.97;5093660;28;20087;-76
2022/06/02 09:27:28;;;;;;;14.15;2.65;;;;;;;48.35;12.05;99666.13;5094778;28;20052;-77
2022/06/02 09:30:00;;;;;;;5.53;2.53;;;;;;;51.06;10.59;99676.41;5094343;28;20044;-75
2022/06/02 09:32:50;;;;;;;10.63;2.30;;;;;;;52.72;9.57;99671.72;5094644;28;20503;-73
2022/06/02 09:35:41;;;;;;;9.07;2.15;;;;;;;49.02;11.15;99671.16;5094592;28;20056;-78
2022/06/02 09:38:17;;;;;;;6.95;2.90;;;;;;;44.05;15.36;99659.91;5094366;28;20052;-77
2022/06/02 09:40:46;;;;;;;6.68;2.25;;;;;;;40.78;18.17;99663.84;5094160;28;20086;-74
2022/06/02 09:44:00;;;;;;;5.53;2.58;;;;;;;38.59;20.66;99654.41;5094451;28;20097;-74
2022/06/02 09:46:59;;;;;;;10.98;3.20;;;;;;;36.80;22.81;99648.81;5094474;28;20102;-75
2022/06/02 09:49:35;;;;;;;4.88;2.75;;;;;;;35.86;24.08;99662.72;5094158;28;20044;-75
2022/06/02 09:52:11;;;;;;;6.68;2.58;;;;;;;34.64;25.61;99652.97;5093065;28;20051;-75
2022/06/02 09:55:02;;;;;;;5.57;2.72;;;;;;;33.77;26.56;99656.16;5094142;28;20067;-75
2022/06/02 09:57:58;;;;;;;7.57;2.50;;;;;;;33.04;27.47;99646.88;5094204;28;20420;-78
2022/06/02 10:00:44;;;;;;;4.30;2.45;;;;;;;32.64;28.44;99645.44;5100824;28;20088;-75
2022/06/02 10:03:50;;;;;;;3.63;2.13;;;;;;;32.05;29.04;99626.63;5114367;28;20092;-77
2022/06/02 10:06:33;;;;;;;5.00;2.47;;;;;;;31.49;29.71;99621.13;5115221;28;20043;-78
2022/06/02 10:09:31;;;;;;;11.15;3.40;;;;;;;31.25;30.58;99631.50;5114349;28;20067;-78
2022/06/02 10:15:17;;;;;;;6.45;3.30;;;;;;;30.65;31.57;99632.16;5093863;28;20493;-77
2022/06/02 10:18:18;;;;;;;4.57;2.43;;;;;;;30.31;32.03;99629.31;5093913;28;20058;-78
2022/06/02 10:21:15;;;;;;;12.98;3.15;;;;;;;30.20;32.54;99628.88;5093277;28;20294;-77
2022/06/02 10:24:07;;;;;;;6.82;2.58;;;;;;;30.13;33.12;99642.19;5085575;28;20121;-74
2022/06/02 10:26:43;;;;;;;6.85;2.60;;;;;;;29.67;33.68;99628.59;5093593;28;20086;-76
2022/06/02 10:29:27;;;;;;;8.00;3.03;;;;;;;29.59;33.91;99624.31;5093711;28;20036;-74
2022/06/02 10:32:22;;;;;;;8.50;2.97;;;;;;;29.73;33.83;99631.69;5093549;28;20079;-74
2022/06/02 10:35:33;;;;;;;5.57;2.63;;;;;;;29.70;34.11;99630.53;5093421;28;20513;-74
2022/06/02 10:38:00;;;;;;;6.28;2.85;;;;;;;29.68;34.27;99624.47;5093888;28;20083;-75
2022/06/02 10:40:56;;;;;;;8.10;2.92;;;;;;;29.53;34.59;99633.94;5092833;28;20537;-77
2022/06/02 10:43:35;;;;;;;5.38;2.58;;;;;;;29.34;34.70;99632.88;5093242;28;20102;-74
2022/06/02 10:46:31;;;;;;;8.63;2.95;;;;;;;29.19;34.85;99628.06;5093240;28;20044;-78
2022/06/02 10:49:03;;;;;;;6.20;2.72;;;;;;;29.30;34.53;99622.78;5061963;28;20071;-78
2022/06/02 10:51:39;;;;;;;4.53;2.72;;;;;;;29.30;34.78;99629.34;5110391;28;20494;-78
2022/06/02 10:54:41;;;;;;;5.85;2.97;;;;;;;29.03;35.45;99631.78;5113280;28;20153;-78
2022/06/02 10:57:26;;;;;;;5.30;2.83;;;;;;;28.87;35.89;99646.19;5060119;28;20227;-74
2022/06/02 11:00:17;;;;;;;4.50;2.60;;;;;;;28.67;36.07;99639.00;5101206;28;20040;-75
2022/06/02 11:02:54;;;;;;;4.88;2.78;;;;;;;28.37;36.83;99631.63;5092781;28;20044;-75
2022/06/02 11:05:51;;;;;;;7.22;2.97;;;;;;;28.56;36.47;99630.72;5092918;28;20086;-74
2022/06/02 11:08:49;;;;;;;8.23;5.15;;;;;;;28.80;36.47;99629.19;5092825;28;20047;-78
2022/06/02 11:11:49;;;;;;;5.28;2.90;;;;;;;28.77;35.90;99632.19;5092582;28;20050;-74
2022/06/02 11:14:46;;;;;;;5.13;3.20;;;;;;;28.78;35.67;99619.47;5092919;28;20074;-77
2022/06/02 11:17:38;;;;;;;9.95;3.13;;;;;;;28.89;35.63;99620.75;5092776;28;20076;-77
2022/06/02 11:20:36;;;;;;;5.60;3.00;;;;;;;28.98;35.86;99612.28;5099360;28;20035;-74
2022/06/02 11:23:23;;;;;;;8.43;3.65;;;;;;;29.01;36.12;99617.09;5102369;28;20132;-74
2022/06/02 11:26:31;;;;;;;5.45;3.33;;;;;;;29.05;35.49;99620.72;5098295;28;20050;-73
2022/06/02 11:29:01;;;;;;;6.57;2.88;;;;;;;29.05;35.46;99623.59;5099039;28;20044;-71
2022/06/02 11:31:31;;;;;;;6.00;3.22;;;;;;;29.12;35.90;99617.63;5098366;28;20051;-72
2022/06/02 11:34:27;;;;;;;9.60;3.28;;;;;;;29.11;35.55;99618.09;5106168;28;20062;-67
2022/06/02 11:37:15;;;;;;;6.50;2.88;;;;;;;29.05;35.64;99628.50;5044155;28;20060;-70
2022/06/02 11:39:46;;;;;;;5.60;3.38;;;;;;;28.80;36.07;99629.19;5093236;28;20052;-68
2022/06/02 11:42:31;;;;;;;5.32;2.45;;;;;;;28.73;36.24;99626.56;5092651;28;20146;-73
2022/06/02 11:45:36;;;;;;;5.43;2.67;;;;;;;28.72;35.52;99627.81;5105569;28;20142;-72
2022/06/02 11:48:36;;;;;;;4.88;2.85;;;;;;;28.63;35.96;99630.53;5095611;28;20048;-69
2022/06/02 11:51:12;;;;;;;7.85;2.63;;;;;;;28.60;35.88;99619.19;5093784;28;20070;-71
2022/06/02 11:54:14;;;;;;;6.22;2.72;;;;;;;28.58;35.42;99628.22;5107468;28;20044;-71
2022/06/02 11:57:16;;;;;;;9.95;2.60;;;;;;;28.38;35.72;99638.97;5065849;28;20055;-74
2022/06/02 12:00:13;;;;;;;4.60;2.95;;;;;;;28.11;36.20;99629.88;5092230;28;20155;-73
2022/06/02 12:02:48;;;;;;;8.77;2.50;;;;;;;28.09;36.27;99624.63;5100852;28;20406;-72
2022/06/02 12:05:33;;;;;;;5.85;2.90;;;;;;;28.13;36.48;99619.59;5105520;28;20043;-72
2022/06/02 12:08:03;;;;;;;5.43;3.28;;;;;;;28.22;36.30;99621.84;5100032;28;20043;-75
2022/06/02 12:10:57;;;;;;;4.68;2.55;;;;;;;28.36;36.05;99615.72;5101773;28;20058;-71
2022/06/02 12:13:48;;;;;;;6.38;2.78;;;;;;;28.44;35.69;99614.25;5097666;28;20048;-74
2022/06/02 12:16:39;;;;;;;5.93;2.97;;;;;;;28.44;35.75;99614.25;5095521;28;20142;-68
2022/06/02 12:19:20;;;;;;;9.90;2.97;;;;;;;28.42;35.98;99613.94;5098531;28;20044;-74
2022/06/02 12:22:04;;;;;;;7.35;3.20;;;;;;;28.41;35.70;99606.56;5104139;28;20463;-76
2022/06/02 12:25:04;;;;;;;6.00;2.60;;;;;;;28.28;35.92;99608.59;5101208;28;20047;-72
2022/06/02 12:27:51;;;;;;;10.45;3.08;;;;;;;28.16;36.09;99617.91;5102273;27;20047;-75
2022/06/02 12:30:52;;;;;;;7.47;2.60;;;;;;;27.89;37.00;99608.81;5102974;28;20043;-69
2022/06/02 12:33:46;;;;;;;9.20;2.40;;;;;;;27.81;36.91;99599.59;5105819;28;20043;-68
2022/06/02 12:36:22;;;;;;;12.35;2.72;;;;;;;27.72;36.87;99604.31;5105558;28;20055;-74
2022/06/02 12:39:07;;;;;;;6.85;3.00;;;;;;;27.71;36.75;99602.72;5098836;28;20090;-75
2022/06/02 12:41:55;;;;;;;7.47;3.00;;;;;;;27.72;36.71;99612.91;5106530;28;20437;-69
2022/06/02 12:44:34;;;;;;;8.45;2.90;;;;;;;27.60;37.33;99608.69;5095271;28;20101;-71
2022/06/02 12:47:27;;;;;;;45.30;23.83;;;;;;;27.66;37.30;99606.09;5096145;28;20426;-72
2022/06/02 12:50:25;;;;;;;9.45;3.30;;;;;;;27.61;37.20;99606.63;5111476;28;20055;-75
2022/06/02 12:53:07;;;;;;;9.18;3.05;;;;;;;27.59;37.46;99607.06;5094706;28;20072;-77
2022/06/02 12:55:55;;;;;;;4.88;2.40;;;;;;;27.47;37.33;99607.00;5100801;28;20122;-74
2022/06/02 12:58:34;;;;;;;9.52;3.10;;;;;;;27.38;37.32;99601.09;5108973;28;20490;-69
2022/06/02 13:01:23;;;;;;;5.55;2.67;;;;;;;27.40;37.18;99599.38;5104728;28;20039;-72
2022/06/02 13:03:50;;;;;;;8.20;2.60;;;;;;;27.50;37.12;99603.25;5082862;28;20078;-74
2022/06/02 13:06:47;;;;;;;8.75;2.67;;;;;;;27.68;37.03;99592.19;5102494;28;20046;-69
2022/06/02 13:09:20;;;;;;;5.13;2.78;;;;;;;27.75;37.11;99594.84;5094923;28;20048;-74
2022/06/02 13:12:32;;;;;;;6.07;2.80;;;;;;;27.78;37.11;99588.22;5105603;28;20069;-75
2022/06/02 13:15:31;;;;;;;5.80;3.15;;;;;;;27.77;37.50;99586.63;5096247;28;20625;-78
2022/06/02 13:18:16;;;;;;;5.57;2.75;;;;;;;27.79;37.53;99579.22;5098404;28;20047;-79
2022/06/02 13:20:52;;;;;;;9.38;3.95;;;;;;;27.79;37.64;99584.13;5085371;28;20130;-74
2022/06/02 13:23:53;;;;;;;6.30;2.83;;;;;;;27.67;38.10;99584.84;5105307;27;20131;-75
2022/06/02 13:26:38;;;;;;;6.43;3.10;;;;;;;27.50;38.14;99588.97;5094984;28;20132;-74